Laplata, Maryland
Current Conditions -  °F | °C
As of 10:56 PM on Tuesday 21 Oct 2014 (Local Time) from KNYG Reporting Station
Few Clouds Few Clouds  
Wind Chill: 54°   Ceiling: Unl
Heat Index: 54°   Visibility: 10mi
Dew Point: 50°   Wind: 10mph
Humidity: 86%   Direction: 360°N
Pressure: 29.92"   Gusts: NA
Location:  38.5166°N, 76.9981°W
Report Text: KNYG 220256Z AUTO 36009KT 10SM FEW110 12/10 A2992 RMK AO2 RAE02 SLP131 P0000 60015 T01220100 50006 $
Loading
Personal Weather Stations






























Interactive Weather Map
Tropical Storm Tracking
New forecast layout! Learn more

10-Day Weather Forecast

Advertisements
Track Severe Weather on mobile